sensor_id;sensor_type;location;lat;lon;timestamp;pressure;altitude;pressure_sealevel;temperature;humidity
50933;BME280;36921;49.006;9.292;2023-09-19T00:00:58;98376.53;;;16.23;100.00
50933;BME280;36921;49.006;9.292;2023-09-19T00:03:24;98393.06;;;16.33;100.00
50933;BME280;36921;49.006;9.292;2023-09-19T00:05:50;98394.47;;;16.35;100.00
50933;BME280;36921;49.006;9.292;2023-09-19T00:08:16;98386.38;;;16.24;100.00
50933;BME280;36921;49.006;9.292;2023-09-19T00:10:42;98401.19;;;16.28;100.00
50933;BME280;36921;49.006;9.292;2023-09-19T00:13:08;98406.97;;;16.31;100.00
50933;BME280;36921;49.006;9.292;2023-09-19T00:15:40;98417.44;;;16.39;100.00
50933;BME280;36921;49.006;9.292;2023-09-19T00:18:06;98417.22;;;16.41;100.00
50933;BME280;36921;49.006;9.292;2023-09-19T00:20:32;98412.34;;;16.43;100.00
50933;BME280;36921;49.006;9.292;2023-09-19T00:23:00;98380.81;;;16.35;100.00
50933;BME280;36921;49.006;9.292;2023-09-19T00:25:31;98412.88;;;16.62;100.00
50933;BME280;36921;49.006;9.292;2023-09-19T00:27:57;98421.94;;;16.68;100.00
50933;BME280;36921;49.006;9.292;2023-09-19T00:30:23;98422.78;;;16.68;100.00
50933;BME280;36921;49.006;9.292;2023-09-19T00:32:50;98419.47;;;16.66;100.00
50933;BME280;36921;49.006;9.292;2023-09-19T00:35:19;98432.38;;;16.71;100.00
50933;BME280;36921;49.006;9.292;2023-09-19T00:37:45;98403.19;;;16.54;100.00
50933;BME280;36921;49.006;9.292;2023-09-19T00:40:11;98436.00;;;16.76;100.00
50933;BME280;36921;49.006;9.292;2023-09-19T00:42:41;98419.47;;;16.66;100.00
50933;BME280;36921;49.006;9.292;2023-09-19T00:45:11;98429.41;;;16.72;100.00
50933;BME280;36921;49.006;9.292;2023-09-19T00:47:38;98434.88;;;16.72;100.00
50933;BME280;36921;49.006;9.292;2023-09-19T00:50:05;98436.19;;;16.70;100.00
50933;BME280;36921;49.006;9.292;2023-09-19T00:52:42;98429.41;;;16.72;100.00
50933;BME280;36921;49.006;9.292;2023-09-19T00:55:09;98445.38;;;16.80;100.00
50933;BME280;36921;49.006;9.292;2023-09-19T00:57:36;98442.88;;;16.79;100.00
50933;BME280;36921;49.006;9.292;2023-09-19T01:00:04;98428.88;;;16.75;100.00
50933;BME280;36921;49.006;9.292;2023-09-19T01:02:34;98441.38;;;16.88;100.00
50933;BME280;36921;49.006;9.292;2023-09-19T01:05:00;98437.84;;;16.88;100.00
50933;BME280;36921;49.006;9.292;2023-09-19T01:07:30;98434.19;;;16.82;100.00
50933;BME280;36921;49.006;9.292;2023-09-19T01:09:57;98436.44;;;16.85;100.00
50933;BME280;36921;49.006;9.292;2023-09-19T01:12:55;98449.66;;;16.93;100.00
50933;BME280;36921;49.006;9.292;2023-09-19T01:18:15;98459.44;;;16.89;100.00
50933;BME280;36921;49.006;9.292;2023-09-19T01:24:16;98460.25;;;16.90;100.00
50933;BME280;36921;49.006;9.292;2023-09-19T01:29:48;98472.50;;;16.87;100.00
50933;BME280;36921;49.006;9.292;2023-09-19T01:32:17;98479.94;;;16.92;100.00
50933;BME280;36921;49.006;9.292;2023-09-19T01:34:57;98469.28;;;16.90;100.00
50933;BME280;36921;49.006;9.292;2023-09-19T01:37:29;98471.44;;;16.88;100.00
50933;BME280;36921;49.006;9.292;2023-09-19T01:40:01;98480.38;;;16.83;100.00
50933;BME280;36921;49.006;9.292;2023-09-19T01:48:02;98474.34;;;16.81;100.00
50933;BME280;36921;49.006;9.292;2023-09-19T01:50:35;98471.38;;;16.83;100.00
50933;BME280;36921;49.006;9.292;2023-09-19T01:53:36;98483.19;;;16.89;100.00
50933;BME280;36921;49.006;9.292;2023-09-19T01:56:05;98481.13;;;16.79;100.00
50933;BME280;36921;49.006;9.292;2023-09-19T02:00:58;98482.63;;;16.70;100.00
50933;BME280;36921;49.006;9.292;2023-09-19T02:03:25;98470.22;;;16.62;100.00
50933;BME280;36921;49.006;9.292;2023-09-19T02:05:52;98481.81;;;16.69;100.00
50933;BME280;36921;49.006;9.292;2023-09-19T02:08:20;98448.66;;;16.43;100.00
50933;BME280;36921;49.006;9.292;2023-09-19T02:10:46;98492.97;;;16.68;100.00
50933;BME280;36921;49.006;9.292;2023-09-19T02:13:18;98473.63;;;16.69;100.00
50933;BME280;36921;49.006;9.292;2023-09-19T02:15:44;98486.38;;;16.80;100.00
50933;BME280;36921;49.006;9.292;2023-09-19T02:18:10;98493.53;;;16.86;100.00
50933;BME280;36921;49.006;9.292;2023-09-19T02:20:39;98498.91;;;16.98;100.00
50933;BME280;36921;49.006;9.292;2023-09-19T02:23:05;98494.94;;;16.89;100.00
50933;BME280;36921;49.006;9.292;2023-09-19T02:25:31;98495.13;;;16.82;100.00
50933;BME280;36921;49.006;9.292;2023-09-19T02:27:57;98493.63;;;16.75;100.00
50933;BME280;36921;49.006;9.292;2023-09-19T02:30:23;98477.91;;;16.65;100.00
50933;BME280;36921;49.006;9.292;2023-09-19T02:32:50;98490.41;;;16.61;100.00
50933;BME280;36921;49.006;9.292;2023-09-19T02:35:15;98494.81;;;16.45;100.00
50933;BME280;36921;49.006;9.292;2023-09-19T02:37:41;98499.38;;;16.39;100.00
50933;BME280;36921;49.006;9.292;2023-09-19T02:40:07;98517.34;;;16.35;100.00
50933;BME280;36921;49.006;9.292;2023-09-19T02:42:44;98484.06;;;16.21;100.00
50933;BME280;36921;49.006;9.292;2023-09-19T02:45:14;98506.91;;;16.32;100.00
50933;BME280;36921;49.006;9.292;2023-09-19T02:47:42;98493.81;;;16.17;100.00
50933;BME280;36921;49.006;9.292;2023-09-19T02:50:08;98515.97;;;16.21;100.00
50933;BME280;36921;49.006;9.292;2023-09-19T02:52:37;98528.56;;;16.22;100.00
50933;BME280;36921;49.006;9.292;2023-09-19T02:55:03;98520.22;;;16.12;100.00
50933;BME280;36921;49.006;9.292;2023-09-19T02:57:30;98515.81;;;16.11;100.00
50933;BME280;36921;49.006;9.292;2023-09-19T02:59:58;98524.84;;;16.28;100.00
50933;BME280;36921;49.006;9.292;2023-09-19T03:02:24;98532.53;;;16.31;100.00
50933;BME280;36921;49.006;9.292;2023-09-19T03:04:49;98532.91;;;16.35;100.00
50933;BME280;36921;49.006;9.292;2023-09-19T03:07:16;98515.91;;;16.33;100.00
50933;BME280;36921;49.006;9.292;2023-09-19T03:09:42;98519.47;;;16.33;100.00
50933;BME280;36921;49.006;9.292;2023-09-19T03:12:08;98532.38;;;16.38;100.00
50933;BME280;36921;49.006;9.292;2023-09-19T03:14:33;98534.53;;;16.36;100.00
50933;BME280;36921;49.006;9.292;2023-09-19T03:17:00;98524.13;;;16.33;100.00
50933;BME280;36921;49.006;9.292;2023-09-19T03:19:26;98526.91;;;16.21;100.00
50933;BME280;36921;49.006;9.292;2023-09-19T03:21:52;98536.69;;;16.17;100.00
50933;BME280;36921;49.006;9.292;2023-09-19T03:24:18;98543.44;;;16.14;100.00
50933;BME280;36921;49.006;9.292;2023-09-19T03:26:44;98553.53;;;16.14;100.00
50933;BME280;36921;49.006;9.292;2023-09-19T03:29:10;98533.91;;;16.00;100.00
50933;BME280;36921;49.006;9.292;2023-09-19T03:31:36;98535.91;;;16.05;100.00
50933;BME280;36921;49.006;9.292;2023-09-19T03:34:04;98532.00;;;16.00;100.00
50933;BME280;36921;49.006;9.292;2023-09-19T03:36:30;98521.44;;;16.04;100.00
50933;BME280;36921;49.006;9.292;2023-09-19T03:38:55;98534.09;;;16.10;100.00
50933;BME280;36921;49.006;9.292;2023-09-19T03:41:20;98539.91;;;16.14;100.00
50933;BME280;36921;49.006;9.292;2023-09-19T03:43:46;98534.00;;;16.05;100.00
50933;BME280;36921;49.006;9.292;2023-09-19T03:46:11;98533.50;;;16.08;100.00
50933;BME280;36921;49.006;9.292;2023-09-19T03:48:38;98546.50;;;16.18;100.00
50933;BME280;36921;49.006;9.292;2023-09-19T03:51:03;98531.44;;;16.15;100.00
50933;BME280;36921;49.006;9.292;2023-09-19T03:53:29;98542.31;;;16.27;100.00
50933;BME280;36921;49.006;9.292;2023-09-19T03:55:54;98551.75;;;16.36;100.00
50933;BME280;36921;49.006;9.292;2023-09-19T03:58:20;98543.97;;;16.28;100.00
50933;BME280;36921;49.006;9.292;2023-09-19T04:00:45;98535.75;;;16.28;100.00
50933;BME280;36921;49.006;9.292;2023-09-19T04:03:11;98549.75;;;16.32;100.00
50933;BME280;36921;49.006;9.292;2023-09-19T04:05:44;98552.47;;;16.32;100.00
50933;BME280;36921;49.006;9.292;2023-09-19T04:08:09;98552.47;;;16.32;100.00
50933;BME280;36921;49.006;9.292;2023-09-19T04:10:35;98555.19;;;16.32;100.00
50933;BME280;36921;49.006;9.292;2023-09-19T04:13:00;98556.59;;;16.34;100.00
50933;BME280;36921;49.006;9.292;2023-09-19T04:15:26;98559.59;;;16.33;100.00
50933;BME280;36921;49.006;9.292;2023-09-19T04:17:51;98571.84;;;16.30;100.00
50933;BME280;36921;49.006;9.292;2023-09-19T04:20:17;98566.59;;;16.12;100.00
50933;BME280;36921;49.006;9.292;2023-09-19T04:22:44;98580.28;;;16.00;100.00
50933;BME280;36921;49.006;9.292;2023-09-19T04:25:09;98554.34;;;15.57;100.00
50933;BME280;36921;49.006;9.292;2023-09-19T04:27:35;98580.78;;;15.56;100.00
50933;BME280;36921;49.006;9.292;2023-09-19T04:30:00;98581.94;;;15.61;100.00
50933;BME280;36921;49.006;9.292;2023-09-19T04:32:28;98601.84;;;15.61;100.00
50933;BME280;36921;49.006;9.292;2023-09-19T04:34:54;98605.56;;;15.55;100.00
50933;BME280;36921;49.006;9.292;2023-09-19T04:37:24;98611.97;;;15.49;100.00
50933;BME280;36921;49.006;9.292;2023-09-19T04:39:50;98617.44;;;15.49;100.00
50933;BME280;36921;49.006;9.292;2023-09-19T04:42:15;98574.44;;;15.27;100.00
50933;BME280;36921;49.006;9.292;2023-09-19T04:44:40;98597.88;;;15.40;100.00
50933;BME280;36921;49.006;9.292;2023-09-19T04:47:05;98623.69;;;15.49;100.00
50933;BME280;36921;49.006;9.292;2023-09-19T04:49:31;98605.47;;;15.38;100.00
50933;BME280;36921;49.006;9.292;2023-09-19T04:51:56;98613.19;;;15.41;100.00
50933;BME280;36921;49.006;9.292;2023-09-19T04:54:21;98590.31;;;15.19;100.00
50933;BME280;36921;49.006;9.292;2023-09-19T04:56:47;98613.28;;;15.34;100.00
50933;BME280;36921;49.006;9.292;2023-09-19T04:59:13;98619.66;;;15.40;100.00
50933;BME280;36921;49.006;9.292;2023-09-19T05:01:39;98606.66;;;15.30;100.00
50933;BME280;36921;49.006;9.292;2023-09-19T05:04:05;98615.06;;;15.41;100.00
50933;BME280;36921;49.006;9.292;2023-09-19T05:06:30;98624.41;;;15.45;100.00
50933;BME280;36921;49.006;9.292;2023-09-19T05:08:56;98617.06;;;15.45;100.00
50933;BME280;36921;49.006;9.292;2023-09-19T05:11:21;98627.03;;;15.51;100.00
50933;BME280;36921;49.006;9.292;2023-09-19T05:13:47;98619.41;;;15.53;100.00
50933;BME280;36921;49.006;9.292;2023-09-19T05:16:13;98628.41;;;15.66;100.00
50933;BME280;36921;49.006;9.292;2023-09-19T05:18:38;98641.69;;;15.74;100.00
50933;BME280;36921;49.006;9.292;2023-09-19T05:21:04;98613.50;;;15.56;100.00
50933;BME280;36921;49.006;9.292;2023-09-19T05:23:30;98647.63;;;15.83;100.00
50933;BME280;36921;49.006;9.292;2023-09-19T05:25:56;98649.16;;;15.90;100.00
50933;BME280;36921;49.006;9.292;2023-09-19T05:28:25;98619.78;;;15.69;100.00
50933;BME280;36921;49.006;9.292;2023-09-19T05:30:50;98642.50;;;15.86;100.00
50933;BME280;36921;49.006;9.292;2023-09-19T05:33:16;98644.53;;;15.91;100.00
50933;BME280;36921;49.006;9.292;2023-09-19T05:35:43;98644.84;;;15.94;100.00
50933;BME280;36921;49.006;9.292;2023-09-19T05:38:08;98656.56;;;16.07;100.00
50933;BME280;36921;49.006;9.292;2023-09-19T05:40:34;98648.97;;;16.09;100.00
50933;BME280;36921;49.006;9.292;2023-09-19T05:43:00;98649.44;;;16.06;100.00
50933;BME280;36921;49.006;9.292;2023-09-19T05:45:25;98660.72;;;16.09;100.00
50933;BME280;36921;49.006;9.292;2023-09-19T05:47:52;98666.84;;;16.16;100.00
50933;BME280;36921;49.006;9.292;2023-09-19T05:50:21;98671.47;;;16.16;100.00
50933;BME280;36921;49.006;9.292;2023-09-19T05:52:53;98678.22;;;16.25;100.00
50933;BME280;36921;49.006;9.292;2023-09-19T05:55:19;98683.88;;;16.35;100.00
50933;BME280;36921;49.006;9.292;2023-09-19T05:57:50;98674.66;;;16.25;100.00
50933;BME280;36921;49.006;9.292;2023-09-19T06:00:20;98674.31;;;16.21;100.00
50933;BME280;36921;49.006;9.292;2023-09-19T06:02:55;98691.38;;;16.28;100.00
50933;BME280;36921;49.006;9.292;2023-09-19T06:05:22;98688.50;;;16.35;100.00
50933;BME280;36921;49.006;9.292;2023-09-19T06:07:48;98689.72;;;16.27;100.00
50933;BME280;36921;49.006;9.292;2023-09-19T06:10:13;98704.91;;;16.35;100.00
50933;BME280;36921;49.006;9.292;2023-09-19T06:12:40;98700.94;;;16.14;100.00
50933;BME280;36921;49.006;9.292;2023-09-19T06:15:08;98718.09;;;16.26;100.00
50933;BME280;36921;49.006;9.292;2023-09-19T06:17:37;98705.50;;;16.25;100.00
50933;BME280;36921;49.006;9.292;2023-09-19T06:20:06;98711.06;;;16.30;100.00
50933;BME280;36921;49.006;9.292;2023-09-19T06:22:44;98709.41;;;16.29;100.00
50933;BME280;36921;49.006;9.292;2023-09-19T06:25:11;98712.22;;;16.34;100.00
50933;BME280;36921;49.006;9.292;2023-09-19T06:27:40;98703.31;;;16.39;100.00
50933;BME280;36921;49.006;9.292;2023-09-19T06:30:09;98697.66;;;16.57;100.00
50933;BME280;36921;49.006;9.292;2023-09-19T06:32:36;98670.41;;;16.46;100.00
50933;BME280;36921;49.006;9.292;2023-09-19T06:35:02;98687.66;;;16.63;100.00
50933;BME280;36921;49.006;9.292;2023-09-19T06:37:32;98681.78;;;16.71;100.00
50933;BME280;36921;49.006;9.292;2023-09-19T06:39:59;98676.28;;;16.83;100.00
50933;BME280;36921;49.006;9.292;2023-09-19T06:42:25;98678.97;;;17.12;100.00
50933;BME280;36921;49.006;9.292;2023-09-19T06:44:50;98676.03;;;17.35;100.00
50933;BME280;36921;49.006;9.292;2023-09-19T06:47:15;98666.22;;;17.56;100.00
50933;BME280;36921;49.006;9.292;2023-09-19T06:49:41;98678.69;;;17.86;100.00
50933;BME280;36921;49.006;9.292;2023-09-19T06:52:09;98666.13;;;18.12;100.00
50933;BME280;36921;49.006;9.292;2023-09-19T06:54:34;98667.03;;;18.99;100.00
50933;BME280;36921;49.006;9.292;2023-09-19T06:57:01;98669.41;;;20.07;100.00
50933;BME280;36921;49.006;9.292;2023-09-19T06:59:26;98672.31;;;20.58;100.00
50933;BME280;36921;49.006;9.292;2023-09-19T07:01:51;98657.44;;;21.67;100.00
50933;BME280;36921;49.006;9.292;2023-09-19T07:04:18;98671.03;;;22.73;100.00
50933;BME280;36921;49.006;9.292;2023-09-19T07:06:49;98676.53;;;23.12;100.00
50933;BME280;36921;49.006;9.292;2023-09-19T07:09:15;98655.34;;;23.37;100.00
50933;BME280;36921;49.006;9.292;2023-09-19T07:11:40;98667.31;;;23.27;100.00
50933;BME280;36921;49.006;9.292;2023-09-19T07:14:05;98670.56;;;24.12;100.00
50933;BME280;36921;49.006;9.292;2023-09-19T07:16:30;98664.69;;;24.61;100.00
50933;BME280;36921;49.006;9.292;2023-09-19T07:18:56;98667.81;;;25.58;100.00
50933;BME280;36921;49.006;9.292;2023-09-19T07:21:23;98678.97;;;24.68;100.00
50933;BME280;36921;49.006;9.292;2023-09-19T07:23:48;98679.84;;;24.83;100.00
50933;BME280;36921;49.006;9.292;2023-09-19T07:26:15;98698.88;;;22.22;100.00
50933;BME280;36921;49.006;9.292;2023-09-19T07:28:40;98697.22;;;22.10;100.00
50933;BME280;36921;49.006;9.292;2023-09-19T07:31:05;98699.59;;;21.21;100.00
50933;BME280;36921;49.006;9.292;2023-09-19T07:33:32;98707.50;;;20.72;100.00
50933;BME280;36921;49.006;9.292;2023-09-19T07:35:57;98695.16;;;20.79;100.00
50933;BME280;36921;49.006;9.292;2023-09-19T07:38:23;98704.78;;;21.74;100.00
50933;BME280;36921;49.006;9.292;2023-09-19T07:40:50;98681.72;;;22.40;100.00
50933;BME280;36921;49.006;9.292;2023-09-19T07:43:15;98714.22;;;23.32;100.00
50933;BME280;36921;49.006;9.292;2023-09-19T07:45:40;98703.81;;;24.06;100.00
50933;BME280;36921;49.006;9.292;2023-09-19T07:48:06;98714.31;;;24.04;100.00
50933;BME280;36921;49.006;9.292;2023-09-19T07:50:39;98705.66;;;25.49;100.00
50933;BME280;36921;49.006;9.292;2023-09-19T07:53:05;98695.97;;;26.48;88.09
50933;BME280;36921;49.006;9.292;2023-09-19T07:55:31;98724.09;;;27.19;80.30
50933;BME280;36921;49.006;9.292;2023-09-19T08:00:26;98715.91;;;25.16;90.45
50933;BME280;36921;49.006;9.292;2023-09-19T08:02:51;98717.00;;;27.13;77.57
50933;BME280;36921;49.006;9.292;2023-09-19T08:05:17;98712.56;;;27.26;77.73
50933;BME280;36921;49.006;9.292;2023-09-19T08:07:44;98728.13;;;27.81;73.02
50933;BME280;36921;49.006;9.292;2023-09-19T08:10:14;98737.16;;;28.26;75.95
50933;BME280;36921;49.006;9.292;2023-09-19T08:12:41;98739.41;;;28.15;70.68
50933;BME280;36921;49.006;9.292;2023-09-19T08:15:18;98744.97;;;25.51;74.52
50933;BME280;36921;49.006;9.292;2023-09-19T08:17:47;98747.25;;;26.51;80.63
50933;BME280;36921;49.006;9.292;2023-09-19T08:20:13;98741.28;;;29.47;67.04
50933;BME280;36921;49.006;9.292;2023-09-19T08:22:52;98743.38;;;28.72;66.39
50933;BME280;36921;49.006;9.292;2023-09-19T08:25:19;98744.97;;;29.95;65.29
50933;BME280;36921;49.006;9.292;2023-09-19T08:27:45;98745.38;;;29.49;64.53
50933;BME280;36921;49.006;9.292;2023-09-19T08:30:15;98736.41;;;32.06;57.96
50933;BME280;36921;49.006;9.292;2023-09-19T08:32:41;98734.19;;;31.66;55.00
50933;BME280;36921;49.006;9.292;2023-09-19T08:35:08;98747.28;;;30.40;55.98
50933;BME280;36921;49.006;9.292;2023-09-19T08:37:34;98739.28;;;30.59;53.36
50933;BME280;36921;49.006;9.292;2023-09-19T08:40:00;98748.31;;;29.79;56.17
50933;BME280;36921;49.006;9.292;2023-09-19T08:42:25;98745.13;;;31.59;51.33
50933;BME280;36921;49.006;9.292;2023-09-19T08:44:50;98758.09;;;31.00;51.67
50933;BME280;36921;49.006;9.292;2023-09-19T08:47:19;98744.34;;;31.37;50.37
50933;BME280;36921;49.006;9.292;2023-09-19T08:50:01;98757.88;;;27.58;56.59
50933;BME280;36921;49.006;9.292;2023-09-19T08:52:41;98753.78;;;27.78;58.04
50933;BME280;36921;49.006;9.292;2023-09-19T08:55:07;98753.75;;;28.00;59.31
50933;BME280;36921;49.006;9.292;2023-09-19T08:57:37;98752.09;;;26.45;62.20
50933;BME280;36921;49.006;9.292;2023-09-19T09:00:07;98761.91;;;27.29;63.26
50933;BME280;36921;49.006;9.292;2023-09-19T09:02:38;98751.06;;;26.27;66.60
50933;BME280;36921;49.006;9.292;2023-09-19T09:05:10;98756.41;;;26.10;66.05
50933;BME280;36921;49.006;9.292;2023-09-19T09:07:37;98745.09;;;25.27;70.27
50933;BME280;36921;49.006;9.292;2023-09-19T09:10:03;98740.06;;;26.22;69.74
50933;BME280;36921;49.006;9.292;2023-09-19T09:12:30;98750.28;;;26.54;68.74
50933;BME280;36921;49.006;9.292;2023-09-19T09:14:56;98766.38;;;24.69;73.98
50933;BME280;36921;49.006;9.292;2023-09-19T09:17:22;98773.13;;;24.10;86.51
50933;BME280;36921;49.006;9.292;2023-09-19T09:19:48;98732.59;;;23.08;99.13
50933;BME280;36921;49.006;9.292;2023-09-19T09:22:13;98750.88;;;23.38;100.00
50933;BME280;36921;49.006;9.292;2023-09-19T09:24:52;98777.28;;;23.10;100.00
50933;BME280;36921;49.006;9.292;2023-09-19T09:27:19;98783.38;;;22.47;100.00
50933;BME280;36921;49.006;9.292;2023-09-19T09:29:47;98773.56;;;22.15;100.00
50933;BME280;36921;49.006;9.292;2023-09-19T09:32:27;98772.25;;;21.77;100.00
50933;BME280;36921;49.006;9.292;2023-09-19T09:34:58;98778.31;;;21.43;100.00
50933;BME280;36921;49.006;9.292;2023-09-19T09:37:25;98777.44;;;21.22;100.00
50933;BME280;36921;49.006;9.292;2023-09-19T09:39:56;98777.59;;;20.64;100.00
50933;BME280;36921;49.006;9.292;2023-09-19T09:42:36;98778.53;;;21.06;100.00
50933;BME280;36921;49.006;9.292;2023-09-19T09:45:15;98782.13;;;21.37;100.00
50933;BME280;36921;49.006;9.292;2023-09-19T09:47:48;98767.47;;;20.85;100.00
50933;BME280;36921;49.006;9.292;2023-09-19T09:50:33;98769.44;;;20.95;100.00
50933;BME280;36921;49.006;9.292;2023-09-19T09:56:06;98770.94;;;22.54;100.00
50933;BME280;36921;49.006;9.292;2023-09-19T09:58:37;98762.31;;;21.91;100.00
50933;BME280;36921;49.006;9.292;2023-09-19T10:01:06;98777.59;;;22.48;100.00
50933;BME280;36921;49.006;9.292;2023-09-19T10:03:39;98758.03;;;25.97;92.31
50933;BME280;36921;49.006;9.292;2023-09-19T10:06:10;98752.47;;;26.94;81.33
50933;BME280;36921;49.006;9.292;2023-09-19T10:09:06;98753.56;;;27.06;72.41
50933;BME280;36921;49.006;9.292;2023-09-19T10:12:03;98750.72;;;26.84;70.99
50933;BME280;36921;49.006;9.292;2023-09-19T10:14:30;98761.97;;;27.38;71.68
50933;BME280;36921;49.006;9.292;2023-09-19T10:16:58;98748.34;;;30.26;66.37
50933;BME280;36921;49.006;9.292;2023-09-19T10:19:47;98750.97;;;32.12;57.24
50933;BME280;36921;49.006;9.292;2023-09-19T10:22:19;98738.06;;;34.21;52.15
50933;BME280;36921;49.006;9.292;2023-09-19T10:24:48;98735.59;;;32.05;53.07
50933;BME280;36921;49.006;9.292;2023-09-19T10:27:17;98748.41;;;30.47;54.79
50933;BME280;36921;49.006;9.292;2023-09-19T10:29:45;98744.00;;;32.18;53.16
50933;BME280;36921;49.006;9.292;2023-09-19T10:32:15;98750.28;;;33.13;50.92
50933;BME280;36921;49.006;9.292;2023-09-19T10:34:48;98748.31;;;31.70;50.07
50933;BME280;36921;49.006;9.292;2023-09-19T10:37:15;98734.56;;;30.12;53.61
50933;BME280;36921;49.006;9.292;2023-09-19T10:39:46;98753.81;;;28.57;57.20
50933;BME280;36921;49.006;9.292;2023-09-19T10:42:14;98736.69;;;29.68;57.31
50933;BME280;36921;49.006;9.292;2023-09-19T10:44:42;98754.28;;;31.80;52.23
50933;BME280;36921;49.006;9.292;2023-09-19T10:47:09;98733.38;;;34.25;49.98
50933;BME280;36921;49.006;9.292;2023-09-19T10:49:34;98748.59;;;35.46;45.49
50933;BME280;36921;49.006;9.292;2023-09-19T10:52:00;98746.50;;;35.24;44.95
50933;BME280;36921;49.006;9.292;2023-09-19T10:54:30;98743.78;;;36.32;43.72
50933;BME280;36921;49.006;9.292;2023-09-19T10:56:58;98740.97;;;34.09;44.52
50933;BME280;36921;49.006;9.292;2023-09-19T10:59:24;98735.25;;;34.37;45.57
50933;BME280;36921;49.006;9.292;2023-09-19T11:01:51;98742.50;;;34.38;45.85
50933;BME280;36921;49.006;9.292;2023-09-19T11:04:36;98731.53;;;31.15;48.85
50933;BME280;36921;49.006;9.292;2023-09-19T11:07:06;98749.28;;;28.79;54.52
50933;BME280;36921;49.006;9.292;2023-09-19T11:12:12;98742.72;;;28.26;58.51
50933;BME280;36921;49.006;9.292;2023-09-19T11:14:39;98758.84;;;29.47;57.80
50933;BME280;36921;49.006;9.292;2023-09-19T11:30:51;98730.94;;;32.22;48.22
50933;BME280;36921;49.006;9.292;2023-09-19T11:33:30;98714.59;;;34.30;46.51
50933;BME280;36921;49.006;9.292;2023-09-19T11:36:11;98702.72;;;32.27;47.12
50933;BME280;36921;49.006;9.292;2023-09-19T11:38:57;98720.88;;;31.09;49.51
50933;BME280;36921;49.006;9.292;2023-09-19T11:43:54;98725.19;;;32.92;47.06
50933;BME280;36921;49.006;9.292;2023-09-19T11:46:24;98716.47;;;32.69;45.79
50933;BME280;36921;49.006;9.292;2023-09-19T11:48:50;98714.13;;;33.24;45.48
50933;BME280;36921;49.006;9.292;2023-09-19T11:51:21;98713.28;;;34.75;43.53
50933;BME280;36921;49.006;9.292;2023-09-19T11:53:50;98705.91;;;33.03;46.33
50933;BME280;36921;49.006;9.292;2023-09-19T11:56:17;98711.53;;;31.92;45.90
50933;BME280;36921;49.006;9.292;2023-09-19T11:58:45;98700.41;;;30.15;46.31
50933;BME280;36921;49.006;9.292;2023-09-19T12:01:14;98715.72;;;30.48;47.75
50933;BME280;36921;49.006;9.292;2023-09-19T12:03:47;98695.88;;;30.91;45.41
50933;BME280;36921;49.006;9.292;2023-09-19T12:06:15;98710.91;;;30.78;45.43
50933;BME280;36921;49.006;9.292;2023-09-19T12:08:42;98676.91;;;30.25;46.96
50933;BME280;36921;49.006;9.292;2023-09-19T12:11:14;98702.19;;;30.20;46.84
50933;BME280;36921;49.006;9.292;2023-09-19T12:13:42;98683.41;;;31.88;44.95
50933;BME280;36921;49.006;9.292;2023-09-19T12:16:16;98693.59;;;32.30;46.18
50933;BME280;36921;49.006;9.292;2023-09-19T12:18:45;98673.66;;;32.31;46.36
50933;BME280;36921;49.006;9.292;2023-09-19T12:21:27;98702.03;;;29.78;48.48
50933;BME280;36921;49.006;9.292;2023-09-19T12:24:09;98691.09;;;29.64;48.88
50933;BME280;36921;49.006;9.292;2023-09-19T12:26:45;98687.06;;;30.60;47.93
50933;BME280;36921;49.006;9.292;2023-09-19T12:29:14;98690.16;;;30.88;47.73
50933;BME280;36921;49.006;9.292;2023-09-19T12:31:59;98688.13;;;31.51;46.93
50933;BME280;36921;49.006;9.292;2023-09-19T12:34:26;98675.59;;;33.49;44.12
50933;BME280;36921;49.006;9.292;2023-09-19T12:39:43;98667.47;;;35.94;41.47
50933;BME280;36921;49.006;9.292;2023-09-19T12:42:13;98662.75;;;36.02;39.96
50933;BME280;36921;49.006;9.292;2023-09-19T12:44:45;98665.31;;;36.34;40.49
50933;BME280;36921;49.006;9.292;2023-09-19T12:47:16;98676.38;;;33.62;41.19
50933;BME280;36921;49.006;9.292;2023-09-19T12:50:11;98670.66;;;33.46;41.45
50933;BME280;36921;49.006;9.292;2023-09-19T12:52:44;98664.03;;;35.00;41.24
50933;BME280;36921;49.006;9.292;2023-09-19T12:55:25;98662.91;;;36.09;39.15
50933;BME280;36921;49.006;9.292;2023-09-19T12:58:15;98657.63;;;35.19;38.58
50933;BME280;36921;49.006;9.292;2023-09-19T13:00:45;98649.69;;;33.11;40.96
50933;BME280;36921;49.006;9.292;2023-09-19T13:03:14;98642.72;;;33.33;41.42
50933;BME280;36921;49.006;9.292;2023-09-19T13:05:53;98648.59;;;31.98;41.41
50933;BME280;36921;49.006;9.292;2023-09-19T13:08:29;98653.94;;;33.05;40.66
50933;BME280;36921;49.006;9.292;2023-09-19T13:11:12;98648.91;;;34.34;39.74
50933;BME280;36921;49.006;9.292;2023-09-19T13:13:42;98652.28;;;33.60;39.88
50933;BME280;36921;49.006;9.292;2023-09-19T13:16:10;98648.84;;;33.67;39.34
50933;BME280;36921;49.006;9.292;2023-09-19T13:19:03;98640.34;;;35.40;38.88
50933;BME280;36921;49.006;9.292;2023-09-19T13:21:30;98651.88;;;34.06;39.55
50933;BME280;36921;49.006;9.292;2023-09-19T13:24:24;98642.50;;;34.53;38.96
50933;BME280;36921;49.006;9.292;2023-09-19T13:26:56;98638.88;;;34.68;38.30
50933;BME280;36921;49.006;9.292;2023-09-19T13:29:22;98633.59;;;32.68;40.15
50933;BME280;36921;49.006;9.292;2023-09-19T13:31:49;98653.16;;;32.80;40.39
50933;BME280;36921;49.006;9.292;2023-09-19T13:34:16;98631.69;;;33.41;40.18
50933;BME280;36921;49.006;9.292;2023-09-19T13:36:42;98631.69;;;34.36;39.90
50933;BME280;36921;49.006;9.292;2023-09-19T13:39:08;98621.44;;;34.43;39.37
50933;BME280;36921;49.006;9.292;2023-09-19T13:41:38;98618.72;;;35.44;38.18
50933;BME280;36921;49.006;9.292;2023-09-19T13:44:04;98633.91;;;35.82;37.81
50933;BME280;36921;49.006;9.292;2023-09-19T13:46:29;98624.69;;;34.10;37.86